sensor_id;sensor_type;location;lat;lon;timestamp;temperature;humidity
59307;DHT22;47983;53.016;-2.260;2022-12-18T00:00:04;0.60;99.90
59307;DHT22;47983;53.016;-2.260;2022-12-18T00:02:40;0.70;99.90
59307;DHT22;47983;53.016;-2.260;2022-12-18T00:05:08;0.60;99.90
59307;DHT22;47983;53.016;-2.260;2022-12-18T00:07:35;0.60;99.90
59307;DHT22;47983;53.016;-2.260;2022-12-18T00:10:04;0.60;99.90
59307;DHT22;47983;53.016;-2.260;2022-12-18T00:12:32;0.60;99.90
59307;DHT22;47983;53.016;-2.260;2022-12-18T00:15:00;0.60;99.90
59307;DHT22;47983;53.016;-2.260;2022-12-18T00:17:27;0.60;99.90
59307;DHT22;47983;53.016;-2.260;2022-12-18T00:19:55;0.50;99.90
59307;DHT22;47983;53.016;-2.260;2022-12-18T00:22:23;0.50;99.90
59307;DHT22;47983;53.016;-2.260;2022-12-18T00:24:50;0.50;99.90
59307;DHT22;47983;53.016;-2.260;2022-12-18T00:27:18;0.40;99.90
59307;DHT22;47983;53.016;-2.260;2022-12-18T00:29:48;0.40;99.90
59307;DHT22;47983;53.016;-2.260;2022-12-18T00:32:15;0.40;99.90
59307;DHT22;47983;53.016;-2.260;2022-12-18T00:34:43;0.40;99.90
59307;DHT22;47983;53.016;-2.260;2022-12-18T00:37:11;0.30;99.90
59307;DHT22;47983;53.016;-2.260;2022-12-18T00:39:48;0.30;99.90
59307;DHT22;47983;53.016;-2.260;2022-12-18T00:42:15;0.20;99.90
59307;DHT22;47983;53.016;-2.260;2022-12-18T00:45:02;0.20;99.90
59307;DHT22;47983;53.016;-2.260;2022-12-18T00:47:39;0.20;99.90
59307;DHT22;47983;53.016;-2.260;2022-12-18T00:50:07;0.10;99.90
59307;DHT22;47983;53.016;-2.260;2022-12-18T00:52:35;0.10;99.90
59307;DHT22;47983;53.016;-2.260;2022-12-18T00:55:03;0.00;99.90
59307;DHT22;47983;53.016;-2.260;2022-12-18T00:57:33;-0.10;99.90
59307;DHT22;47983;53.016;-2.260;2022-12-18T01:00:01;-0.10;99.90
59307;DHT22;47983;53.016;-2.260;2022-12-18T01:02:29;-0.20;99.90
59307;DHT22;47983;53.016;-2.260;2022-12-18T01:04:57;-0.20;99.90
59307;DHT22;47983;53.016;-2.260;2022-12-18T01:07:25;-0.30;99.90
59307;DHT22;47983;53.016;-2.260;2022-12-18T01:09:53;-0.30;99.90
59307;DHT22;47983;53.016;-2.260;2022-12-18T01:12:24;-0.40;99.90
59307;DHT22;47983;53.016;-2.260;2022-12-18T01:14:51;-0.40;99.90
59307;DHT22;47983;53.016;-2.260;2022-12-18T01:17:21;-0.50;99.90
59307;DHT22;47983;53.016;-2.260;2022-12-18T01:19:49;-0.50;99.90
59307;DHT22;47983;53.016;-2.260;2022-12-18T01:22:17;-0.50;99.90
59307;DHT22;47983;53.016;-2.260;2022-12-18T01:24:45;-0.50;99.90
59307;DHT22;47983;53.016;-2.260;2022-12-18T01:27:12;-0.60;99.90
59307;DHT22;47983;53.016;-2.260;2022-12-18T01:29:40;-0.60;99.90
59307;DHT22;47983;53.016;-2.260;2022-12-18T02:27:57;-1.00;99.90
59307;DHT22;47983;53.016;-2.260;2022-12-18T02:30:30;-1.00;99.90
59307;DHT22;47983;53.016;-2.260;2022-12-18T02:33:00;-1.00;99.90
59307;DHT22;47983;53.016;-2.260;2022-12-18T02:35:30;-1.00;99.90
59307;DHT22;47983;53.016;-2.260;2022-12-18T02:38:00;-1.00;99.90
59307;DHT22;47983;53.016;-2.260;2022-12-18T02:40:30;-1.00;99.90
59307;DHT22;47983;53.016;-2.260;2022-12-18T02:43:10;-1.00;99.90
59307;DHT22;47983;53.016;-2.260;2022-12-18T02:46:01;-1.00;99.90
59307;DHT22;47983;53.016;-2.260;2022-12-18T02:48:40;-1.00;99.90
59307;DHT22;47983;53.016;-2.260;2022-12-18T02:51:26;-1.00;99.90
59307;DHT22;47983;53.016;-2.260;2022-12-18T02:54:06;-1.00;99.90
59307;DHT22;47983;53.016;-2.260;2022-12-18T02:56:49;-1.00;99.90
59307;DHT22;47983;53.016;-2.260;2022-12-18T02:59:26;-0.90;99.90
59307;DHT22;47983;53.016;-2.260;2022-12-18T03:02:28;-0.90;99.90
59307;DHT22;47983;53.016;-2.260;2022-12-18T03:05:01;-0.90;99.90
59307;DHT22;47983;53.016;-2.260;2022-12-18T03:07:38;-0.90;99.90
59307;DHT22;47983;53.016;-2.260;2022-12-18T03:10:14;-0.90;99.90
59307;DHT22;47983;53.016;-2.260;2022-12-18T03:13:13;-0.90;99.90
59307;DHT22;47983;53.016;-2.260;2022-12-18T03:15:48;-0.90;99.90
59307;DHT22;47983;53.016;-2.260;2022-12-18T03:18:26;-0.90;99.90
59307;DHT22;47983;53.016;-2.260;2022-12-18T03:20:58;-0.90;99.90
59307;DHT22;47983;53.016;-2.260;2022-12-18T03:23:32;-0.80;99.90
59307;DHT22;47983;53.016;-2.260;2022-12-18T03:26:09;-0.80;99.90
59307;DHT22;47983;53.016;-2.260;2022-12-18T03:28:49;-0.80;99.90
59307;DHT22;47983;53.016;-2.260;2022-12-18T03:31:25;-0.80;99.90
59307;DHT22;47983;53.016;-2.260;2022-12-18T03:33:58;-0.80;99.90
59307;DHT22;47983;53.016;-2.260;2022-12-18T03:36:37;-0.80;99.90
59307;DHT22;47983;53.016;-2.260;2022-12-18T03:39:04;-0.80;99.90
59307;DHT22;47983;53.016;-2.260;2022-12-18T03:41:52;-0.70;99.90
59307;DHT22;47983;53.016;-2.260;2022-12-18T03:44:37;-0.70;99.90
59307;DHT22;47983;53.016;-2.260;2022-12-18T03:47:12;-0.70;99.90
59307;DHT22;47983;53.016;-2.260;2022-12-18T03:50:13;-0.70;99.90
59307;DHT22;47983;53.016;-2.260;2022-12-18T03:55:30;-0.70;99.90
59307;DHT22;47983;53.016;-2.260;2022-12-18T03:58:04;-0.70;99.90
59307;DHT22;47983;53.016;-2.260;2022-12-18T04:00:48;-0.70;99.90
59307;DHT22;47983;53.016;-2.260;2022-12-18T04:03:18;-0.70;99.90
59307;DHT22;47983;53.016;-2.260;2022-12-18T04:05:54;-0.70;99.90
59307;DHT22;47983;53.016;-2.260;2022-12-18T04:08:27;-0.70;99.90
59307;DHT22;47983;53.016;-2.260;2022-12-18T04:11:03;-0.70;99.90
59307;DHT22;47983;53.016;-2.260;2022-12-18T04:13:35;-0.90;99.90
59307;DHT22;47983;53.016;-2.260;2022-12-18T04:16:08;-0.70;99.90
59307;DHT22;47983;53.016;-2.260;2022-12-18T04:18:40;-0.70;99.90
59307;DHT22;47983;53.016;-2.260;2022-12-18T04:21:09;-0.70;99.90
59307;DHT22;47983;53.016;-2.260;2022-12-18T04:23:37;-0.80;99.90
59307;DHT22;47983;53.016;-2.260;2022-12-18T04:26:06;-0.70;99.90
59307;DHT22;47983;53.016;-2.260;2022-12-18T04:28:50;-0.70;99.90
59307;DHT22;47983;53.016;-2.260;2022-12-18T04:31:21;-0.70;99.90
59307;DHT22;47983;53.016;-2.260;2022-12-18T04:33:50;-0.70;99.90
59307;DHT22;47983;53.016;-2.260;2022-12-18T04:36:17;-0.70;99.90
59307;DHT22;47983;53.016;-2.260;2022-12-18T04:38:47;-0.70;99.90
59307;DHT22;47983;53.016;-2.260;2022-12-18T04:41:18;-0.70;99.90
59307;DHT22;47983;53.016;-2.260;2022-12-18T04:43:48;-0.60;99.90
59307;DHT22;47983;53.016;-2.260;2022-12-18T04:46:15;-0.70;99.90
59307;DHT22;47983;53.016;-2.260;2022-12-18T04:48:45;-0.60;99.90
59307;DHT22;47983;53.016;-2.260;2022-12-18T04:51:14;-0.60;99.90
59307;DHT22;47983;53.016;-2.260;2022-12-18T04:53:42;-0.60;99.90
59307;DHT22;47983;53.016;-2.260;2022-12-18T04:56:13;-0.70;99.90
59307;DHT22;47983;53.016;-2.260;2022-12-18T04:58:42;-0.60;99.90
59307;DHT22;47983;53.016;-2.260;2022-12-18T05:01:11;-0.60;99.90
59307;DHT22;47983;53.016;-2.260;2022-12-18T05:03:39;-0.60;99.90
59307;DHT22;47983;53.016;-2.260;2022-12-18T05:06:07;-0.60;99.90
59307;DHT22;47983;53.016;-2.260;2022-12-18T05:08:36;-0.60;99.90
59307;DHT22;47983;53.016;-2.260;2022-12-18T05:11:11;-0.60;99.90
59307;DHT22;47983;53.016;-2.260;2022-12-18T05:13:39;-0.60;99.90
59307;DHT22;47983;53.016;-2.260;2022-12-18T05:16:08;-0.60;99.90
59307;DHT22;47983;53.016;-2.260;2022-12-18T05:18:36;-0.60;99.90
59307;DHT22;47983;53.016;-2.260;2022-12-18T05:21:04;-0.60;99.90
59307;DHT22;47983;53.016;-2.260;2022-12-18T05:23:32;-0.60;99.90
59307;DHT22;47983;53.016;-2.260;2022-12-18T05:26:04;-0.60;99.90
59307;DHT22;47983;53.016;-2.260;2022-12-18T05:28:33;-0.70;99.90
59307;DHT22;47983;53.016;-2.260;2022-12-18T05:31:02;-0.70;99.90
59307;DHT22;47983;53.016;-2.260;2022-12-18T05:33:32;-0.70;99.90
59307;DHT22;47983;53.016;-2.260;2022-12-18T05:36:03;-0.70;99.90
59307;DHT22;47983;53.016;-2.260;2022-12-18T05:38:32;-0.70;99.90
59307;DHT22;47983;53.016;-2.260;2022-12-18T05:41:00;-0.70;99.90
59307;DHT22;47983;53.016;-2.260;2022-12-18T05:43:28;-0.70;99.90
59307;DHT22;47983;53.016;-2.260;2022-12-18T05:45:56;-0.60;99.90
59307;DHT22;47983;53.016;-2.260;2022-12-18T05:48:25;-0.60;99.90
59307;DHT22;47983;53.016;-2.260;2022-12-18T05:50:52;-0.60;99.90
59307;DHT22;47983;53.016;-2.260;2022-12-18T05:53:20;-0.50;99.90
59307;DHT22;47983;53.016;-2.260;2022-12-18T05:55:48;-0.50;99.90
59307;DHT22;47983;53.016;-2.260;2022-12-18T05:58:16;-0.40;99.90
59307;DHT22;47983;53.016;-2.260;2022-12-18T06:00:45;-0.50;99.90
59307;DHT22;47983;53.016;-2.260;2022-12-18T06:03:13;-0.30;99.90
59307;DHT22;47983;53.016;-2.260;2022-12-18T06:05:43;-0.30;99.90
59307;DHT22;47983;53.016;-2.260;2022-12-18T06:08:12;-0.30;99.90
59307;DHT22;47983;53.016;-2.260;2022-12-18T06:10:41;-0.20;99.90
59307;DHT22;47983;53.016;-2.260;2022-12-18T06:13:09;-0.30;99.90
59307;DHT22;47983;53.016;-2.260;2022-12-18T06:15:37;-0.20;99.90
59307;DHT22;47983;53.016;-2.260;2022-12-18T06:18:05;-0.20;99.90
59307;DHT22;47983;53.016;-2.260;2022-12-18T06:20:33;-0.20;99.90
59307;DHT22;47983;53.016;-2.260;2022-12-18T06:23:04;-0.20;99.90
59307;DHT22;47983;53.016;-2.260;2022-12-18T06:25:32;-0.20;99.90
59307;DHT22;47983;53.016;-2.260;2022-12-18T06:28:00;-0.20;99.90
59307;DHT22;47983;53.016;-2.260;2022-12-18T06:30:28;-0.10;99.90
59307;DHT22;47983;53.016;-2.260;2022-12-18T06:32:56;-0.10;99.90
59307;DHT22;47983;53.016;-2.260;2022-12-18T06:35:26;-0.10;99.90
59307;DHT22;47983;53.016;-2.260;2022-12-18T06:37:55;-0.10;99.90
59307;DHT22;47983;53.016;-2.260;2022-12-18T06:40:26;-0.10;99.90
59307;DHT22;47983;53.016;-2.260;2022-12-18T06:42:54;-0.10;99.90
59307;DHT22;47983;53.016;-2.260;2022-12-18T06:45:31;-0.10;99.90
59307;DHT22;47983;53.016;-2.260;2022-12-18T06:48:08;-0.10;99.90
59307;DHT22;47983;53.016;-2.260;2022-12-18T06:50:37;0.00;99.90
59307;DHT22;47983;53.016;-2.260;2022-12-18T06:53:18;0.00;99.90
59307;DHT22;47983;53.016;-2.260;2022-12-18T06:55:46;0.00;99.90
59307;DHT22;47983;53.016;-2.260;2022-12-18T06:58:13;-0.10;99.90
59307;DHT22;47983;53.016;-2.260;2022-12-18T07:00:41;0.00;99.90
59307;DHT22;47983;53.016;-2.260;2022-12-18T07:03:10;0.00;99.90
59307;DHT22;47983;53.016;-2.260;2022-12-18T07:05:41;0.00;99.90
59307;DHT22;47983;53.016;-2.260;2022-12-18T07:08:08;0.00;99.90
59307;DHT22;47983;53.016;-2.260;2022-12-18T07:10:43;-0.10;99.90
59307;DHT22;47983;53.016;-2.260;2022-12-18T07:13:16;-0.10;99.90
59307;DHT22;47983;53.016;-2.260;2022-12-18T07:15:44;-0.10;99.90
59307;DHT22;47983;53.016;-2.260;2022-12-18T07:18:12;-0.10;99.90
59307;DHT22;47983;53.016;-2.260;2022-12-18T07:20:41;-0.10;99.90
59307;DHT22;47983;53.016;-2.260;2022-12-18T07:23:08;0.00;99.90
59307;DHT22;47983;53.016;-2.260;2022-12-18T07:25:36;-0.10;99.90
59307;DHT22;47983;53.016;-2.260;2022-12-18T07:28:04;0.00;99.90
59307;DHT22;47983;53.016;-2.260;2022-12-18T07:30:32;0.00;99.90
59307;DHT22;47983;53.016;-2.260;2022-12-18T07:33:01;0.00;99.90
59307;DHT22;47983;53.016;-2.260;2022-12-18T07:35:28;0.00;99.90
59307;DHT22;47983;53.016;-2.260;2022-12-18T07:37:56;0.00;99.90
59307;DHT22;47983;53.016;-2.260;2022-12-18T07:40:24;0.00;99.90
59307;DHT22;47983;53.016;-2.260;2022-12-18T07:42:52;0.00;99.90
59307;DHT22;47983;53.016;-2.260;2022-12-18T07:45:19;0.00;99.90
59307;DHT22;47983;53.016;-2.260;2022-12-18T07:47:49;0.00;99.90
59307;DHT22;47983;53.016;-2.260;2022-12-18T07:50:17;0.00;99.90
59307;DHT22;47983;53.016;-2.260;2022-12-18T07:52:44;0.00;99.90
59307;DHT22;47983;53.016;-2.260;2022-12-18T07:55:12;0.00;99.90
59307;DHT22;47983;53.016;-2.260;2022-12-18T07:57:40;0.00;99.90
59307;DHT22;47983;53.016;-2.260;2022-12-18T08:00:18;0.00;99.90
59307;DHT22;47983;53.016;-2.260;2022-12-18T08:02:47;0.00;99.90
59307;DHT22;47983;53.016;-2.260;2022-12-18T08:05:16;0.00;99.90
59307;DHT22;47983;53.016;-2.260;2022-12-18T08:07:44;0.00;99.90
59307;DHT22;47983;53.016;-2.260;2022-12-18T08:10:12;-0.10;99.90
59307;DHT22;47983;53.016;-2.260;2022-12-18T08:12:40;0.00;99.90
59307;DHT22;47983;53.016;-2.260;2022-12-18T08:15:08;0.00;99.90
59307;DHT22;47983;53.016;-2.260;2022-12-18T08:17:36;0.00;99.90
59307;DHT22;47983;53.016;-2.260;2022-12-18T08:20:04;0.00;99.90
59307;DHT22;47983;53.016;-2.260;2022-12-18T08:22:34;0.00;99.90
59307;DHT22;47983;53.016;-2.260;2022-12-18T08:25:03;0.10;99.90
59307;DHT22;47983;53.016;-2.260;2022-12-18T08:27:31;0.00;99.90
59307;DHT22;47983;53.016;-2.260;2022-12-18T08:29:59;0.00;99.90
59307;DHT22;47983;53.016;-2.260;2022-12-18T08:32:27;0.10;99.90
59307;DHT22;47983;53.016;-2.260;2022-12-18T08:34:55;0.10;99.90
59307;DHT22;47983;53.016;-2.260;2022-12-18T08:37:24;0.10;99.90
59307;DHT22;47983;53.016;-2.260;2022-12-18T08:39:51;0.10;99.90
59307;DHT22;47983;53.016;-2.260;2022-12-18T08:42:19;0.10;99.90
59307;DHT22;47983;53.016;-2.260;2022-12-18T08:45:06;0.10;99.90
59307;DHT22;47983;53.016;-2.260;2022-12-18T08:47:34;0.10;99.90
59307;DHT22;47983;53.016;-2.260;2022-12-18T08:50:02;0.10;99.90
59307;DHT22;47983;53.016;-2.260;2022-12-18T08:52:32;0.00;99.90
59307;DHT22;47983;53.016;-2.260;2022-12-18T08:54:59;0.10;99.90
59307;DHT22;47983;53.016;-2.260;2022-12-18T08:57:27;0.10;99.90
59307;DHT22;47983;53.016;-2.260;2022-12-18T09:00:01;0.10;99.90
59307;DHT22;47983;53.016;-2.260;2022-12-18T09:02:28;0.00;99.90
59307;DHT22;47983;53.016;-2.260;2022-12-18T09:04:56;0.10;99.90
59307;DHT22;47983;53.016;-2.260;2022-12-18T09:07:28;0.10;99.90
59307;DHT22;47983;53.016;-2.260;2022-12-18T09:09:56;0.10;99.90
59307;DHT22;47983;53.016;-2.260;2022-12-18T09:12:24;0.00;99.90
59307;DHT22;47983;53.016;-2.260;2022-12-18T09:14:52;0.10;99.90
59307;DHT22;47983;53.016;-2.260;2022-12-18T09:17:31;0.10;99.90
59307;DHT22;47983;53.016;-2.260;2022-12-18T09:20:01;0.10;99.90
59307;DHT22;47983;53.016;-2.260;2022-12-18T09:22:29;0.10;99.90
59307;DHT22;47983;53.016;-2.260;2022-12-18T09:24:57;0.10;99.90
59307;DHT22;47983;53.016;-2.260;2022-12-18T09:27:24;0.10;99.90
59307;DHT22;47983;53.016;-2.260;2022-12-18T09:29:52;0.20;99.90
59307;DHT22;47983;53.016;-2.260;2022-12-18T09:32:20;0.20;99.90
59307;DHT22;47983;53.016;-2.260;2022-12-18T09:34:49;0.20;99.90
59307;DHT22;47983;53.016;-2.260;2022-12-18T09:37:16;0.20;99.90
59307;DHT22;47983;53.016;-2.260;2022-12-18T09:39:44;0.20;99.90
59307;DHT22;47983;53.016;-2.260;2022-12-18T09:42:20;0.30;99.90
59307;DHT22;47983;53.016;-2.260;2022-12-18T09:44:52;0.30;99.90
59307;DHT22;47983;53.016;-2.260;2022-12-18T09:47:39;0.30;99.90
59307;DHT22;47983;53.016;-2.260;2022-12-18T09:50:30;0.40;99.90
59307;DHT22;47983;53.016;-2.260;2022-12-18T09:53:04;0.50;99.90
59307;DHT22;47983;53.016;-2.260;2022-12-18T09:55:37;0.50;99.90
59307;DHT22;47983;53.016;-2.260;2022-12-18T09:58:18;0.50;99.90
59307;DHT22;47983;53.016;-2.260;2022-12-18T10:00:47;0.50;99.90
59307;DHT22;47983;53.016;-2.260;2022-12-18T10:03:15;0.50;99.90
59307;DHT22;47983;53.016;-2.260;2022-12-18T10:12:01;0.60;99.90
59307;DHT22;47983;53.016;-2.260;2022-12-18T10:20:02;0.50;99.90
59307;DHT22;47983;53.016;-2.260;2022-12-18T10:28:00;0.50;99.90
59307;DHT22;47983;53.016;-2.260;2022-12-18T10:30:35;0.60;99.90
59307;DHT22;47983;53.016;-2.260;2022-12-18T10:33:03;0.60;99.90
59307;DHT22;47983;53.016;-2.260;2022-12-18T10:35:31;0.60;99.90
59307;DHT22;47983;53.016;-2.260;2022-12-18T10:40:28;0.60;99.90
59307;DHT22;47983;53.016;-2.260;2022-12-18T10:43:12;0.70;99.90
59307;DHT22;47983;53.016;-2.260;2022-12-18T10:45:41;0.70;99.90
59307;DHT22;47983;53.016;-2.260;2022-12-18T10:48:19;0.70;99.90
59307;DHT22;47983;53.016;-2.260;2022-12-18T10:50:50;0.80;99.90
59307;DHT22;47983;53.016;-2.260;2022-12-18T10:53:40;0.80;99.90
59307;DHT22;47983;53.016;-2.260;2022-12-18T10:56:09;0.80;99.90
59307;DHT22;47983;53.016;-2.260;2022-12-18T10:58:40;0.90;99.90
59307;DHT22;47983;53.016;-2.260;2022-12-18T11:01:16;0.90;99.90
59307;DHT22;47983;53.016;-2.260;2022-12-18T11:03:58;0.90;99.90
59307;DHT22;47983;53.016;-2.260;2022-12-18T11:06:29;0.90;99.90
59307;DHT22;47983;53.016;-2.260;2022-12-18T11:11:29;1.00;99.90
59307;DHT22;47983;53.016;-2.260;2022-12-18T11:14:04;1.00;99.90
59307;DHT22;47983;53.016;-2.260;2022-12-18T11:16:48;1.20;99.90
59307;DHT22;47983;53.016;-2.260;2022-12-18T11:19:39;1.20;99.90
59307;DHT22;47983;53.016;-2.260;2022-12-18T11:22:21;1.20;99.90
59307;DHT22;47983;53.016;-2.260;2022-12-18T11:28:02;1.40;99.90
59307;DHT22;47983;53.016;-2.260;2022-12-18T11:30:35;1.40;99.90
59307;DHT22;47983;53.016;-2.260;2022-12-18T11:33:22;1.40;99.90
59307;DHT22;47983;53.016;-2.260;2022-12-18T11:35:56;1.40;99.90
59307;DHT22;47983;53.016;-2.260;2022-12-18T11:38:36;1.40;99.90
59307;DHT22;47983;53.016;-2.260;2022-12-18T11:41:26;1.40;99.90
59307;DHT22;47983;53.016;-2.260;2022-12-18T11:44:26;1.40;99.90
59307;DHT22;47983;53.016;-2.260;2022-12-18T11:47:00;1.40;99.90
59307;DHT22;47983;53.016;-2.260;2022-12-18T11:49:33;1.50;99.90
59307;DHT22;47983;53.016;-2.260;2022-12-18T11:52:25;1.40;99.90
59307;DHT22;47983;53.016;-2.260;2022-12-18T11:54:59;1.40;99.90
59307;DHT22;47983;53.016;-2.260;2022-12-18T11:58:03;1.40;99.90
59307;DHT22;47983;53.016;-2.260;2022-12-18T12:00:42;1.40;99.90
59307;DHT22;47983;53.016;-2.260;2022-12-18T12:03:15;1.40;99.90
59307;DHT22;47983;53.016;-2.260;2022-12-18T12:06:00;1.40;99.90
59307;DHT22;47983;53.016;-2.260;2022-12-18T12:08:56;1.40;99.90
59307;DHT22;47983;53.016;-2.260;2022-12-18T12:20:00;1.40;99.90
59307;DHT22;47983;53.016;-2.260;2022-12-18T12:25:16;1.50;99.90
59307;DHT22;47983;53.016;-2.260;2022-12-18T12:36:23;1.40;99.90
59307;DHT22;47983;53.016;-2.260;2022-12-18T12:38:59;1.40;99.90
59307;DHT22;47983;53.016;-2.260;2022-12-18T12:41:31;1.40;99.90
59307;DHT22;47983;53.016;-2.260;2022-12-18T12:44:32;1.40;99.90
59307;DHT22;47983;53.016;-2.260;2022-12-18T12:47:11;1.40;99.90
59307;DHT22;47983;53.016;-2.260;2022-12-18T12:49:46;1.40;99.90
59307;DHT22;47983;53.016;-2.260;2022-12-18T12:52:31;1.40;99.90
59307;DHT22;47983;53.016;-2.260;2022-12-18T12:55:02;1.30;99.90
59307;DHT22;47983;53.016;-2.260;2022-12-18T12:57:40;1.40;99.90
59307;DHT22;47983;53.016;-2.260;2022-12-18T13:00:14;1.30;99.90
59307;DHT22;47983;53.016;-2.260;2022-12-18T13:05:39;1.30;99.90
59307;DHT22;47983;53.016;-2.260;2022-12-18T13:08:11;1.40;99.90
59307;DHT22;47983;53.016;-2.260;2022-12-18T13:10:41;1.40;99.90
59307;DHT22;47983;53.016;-2.260;2022-12-18T13:13:12;1.30;99.90
59307;DHT22;47983;53.016;-2.260;2022-12-18T13:16:05;1.30;99.90
59307;DHT22;47983;53.016;-2.260;2022-12-18T13:18:34;1.40;99.90
59307;DHT22;47983;53.016;-2.260;2022-12-18T13:21:03;1.40;99.90
59307;DHT22;47983;53.016;-2.260;2022-12-18T13:23:36;1.30;99.90
59307;DHT22;47983;53.016;-2.260;2022-12-18T13:28:53;1.30;99.90
59307;DHT22;47983;53.016;-2.260;2022-12-18T13:34:25;1.30;99.90
59307;DHT22;47983;53.016;-2.260;2022-12-18T13:37:35;1.30;99.90
59307;DHT22;47983;53.016;-2.260;2022-12-18T13:39:46;1.30;99.90
59307;DHT22;47983;53.016;-2.260;2022-12-18T13:45:36;1.30;99.90
59307;DHT22;47983;53.016;-2.260;2022-12-18T13:48:18;1.30;99.90
59307;DHT22;47983;53.016;-2.260;2022-12-18T13:51:13;1.30;99.90
59307;DHT22;47983;53.016;-2.260;2022-12-18T13:54:21;1.30;99.90
59307;DHT22;47983;53.016;-2.260;2022-12-18T13:56:51;1.30;99.90
59307;DHT22;47983;53.016;-2.260;2022-12-18T13:59:24;1.30;99.90
59307;DHT22;47983;53.016;-2.260;2022-12-18T14:04:52;1.30;99.90
59307;DHT22;47983;53.016;-2.260;2022-12-18T14:07:26;1.30;99.90
59307;DHT22;47983;53.016;-2.260;2022-12-18T14:10:12;1.30;99.90
59307;DHT22;47983;53.016;-2.260;2022-12-18T14:13:06;1.40;99.90
59307;DHT22;47983;53.016;-2.260;2022-12-18T14:15:42;1.30;99.90
59307;DHT22;47983;53.016;-2.260;2022-12-18T14:18:36;1.40;99.90
59307;DHT22;47983;53.016;-2.260;2022-12-18T14:21:06;1.40;99.90
59307;DHT22;47983;53.016;-2.260;2022-12-18T14:23:43;1.40;99.90
59307;DHT22;47983;53.016;-2.260;2022-12-18T14:26:26;1.40;99.90
59307;DHT22;47983;53.016;-2.260;2022-12-18T14:29:17;1.40;99.90
59307;DHT22;47983;53.016;-2.260;2022-12-18T14:31:45;1.40;99.90
59307;DHT22;47983;53.016;-2.260;2022-12-18T14:34:18;1.40;99.90
59307;DHT22;47983;53.016;-2.260;2022-12-18T14:36:53;1.40;99.90
59307;DHT22;47983;53.016;-2.260;2022-12-18T14:39:22;1.40;99.90
59307;DHT22;47983;53.016;-2.260;2022-12-18T14:41:56;1.40;99.90
59307;DHT22;47983;53.016;-2.260;2022-12-18T14:44:24;1.40;99.90
59307;DHT22;47983;53.016;-2.260;2022-12-18T14:47:01;1.50;99.90
59307;DHT22;47983;53.016;-2.260;2022-12-18T14:49:34;1.50;99.90
59307;DHT22;47983;53.016;-2.260;2022-12-18T14:52:06;1.60;99.90
59307;DHT22;47983;53.016;-2.260;2022-12-18T14:54:46;2.40;99.90
59307;DHT22;47983;53.016;-2.260;2022-12-18T14:57:23;1.50;99.90
59307;DHT22;47983;53.016;-2.260;2022-12-18T14:59:52;1.60;99.90
59307;DHT22;47983;53.016;-2.260;2022-12-18T15:02:27;1.60;99.90
59307;DHT22;47983;53.016;-2.260;2022-12-18T15:05:05;1.70;99.90
59307;DHT22;47983;53.016;-2.260;2022-12-18T15:07:44;1.70;99.90
59307;DHT22;47983;53.016;-2.260;2022-12-18T15:10:32;1.70;99.90
59307;DHT22;47983;53.016;-2.260;2022-12-18T15:18:14;1.70;99.90
59307;DHT22;47983;53.016;-2.260;2022-12-18T15:20:58;1.80;99.90
59307;DHT22;47983;53.016;-2.260;2022-12-18T15:26:04;1.80;99.90
59307;DHT22;47983;53.016;-2.260;2022-12-18T15:36:27;1.80;99.90
59307;DHT22;47983;53.016;-2.260;2022-12-18T15:38:57;2.00;99.90
59307;DHT22;47983;53.016;-2.260;2022-12-18T15:41:33;1.90;99.90
59307;DHT22;47983;53.016;-2.260;2022-12-18T15:44:14;2.00;99.90
59307;DHT22;47983;53.016;-2.260;2022-12-18T15:46:49;2.10;99.90
59307;DHT22;47983;53.016;-2.260;2022-12-18T15:49:21;2.10;99.90
59307;DHT22;47983;53.016;-2.260;2022-12-18T15:51:56;2.20;99.90
59307;DHT22;47983;53.016;-2.260;2022-12-18T15:54:28;2.20;99.90
59307;DHT22;47983;53.016;-2.260;2022-12-18T15:57:17;2.20;99.90
59307;DHT22;47983;53.016;-2.260;2022-12-18T15:59:55;2.30;99.90
59307;DHT22;47983;53.016;-2.260;2022-12-18T16:02:27;2.30;99.90
59307;DHT22;47983;53.016;-2.260;2022-12-18T16:04:59;2.40;99.90
59307;DHT22;47983;53.016;-2.260;2022-12-18T16:07:29;2.40;99.90
59307;DHT22;47983;53.016;-2.260;2022-12-18T16:09:57;2.50;99.90
59307;DHT22;47983;53.016;-2.260;2022-12-18T16:12:30;2.60;99.90
59307;DHT22;47983;53.016;-2.260;2022-12-18T16:14:58;2.50;99.90
59307;DHT22;47983;53.016;-2.260;2022-12-18T16:17:28;2.50;99.90
59307;DHT22;47983;53.016;-2.260;2022-12-18T16:19:57;2.60;99.90
59307;DHT22;47983;53.016;-2.260;2022-12-18T16:22:29;2.60;99.90
59307;DHT22;47983;53.016;-2.260;2022-12-18T16:24:57;2.60;99.90
59307;DHT22;47983;53.016;-2.260;2022-12-18T16:27:25;2.70;99.90
59307;DHT22;47983;53.016;-2.260;2022-12-18T16:29:53;2.70;99.90
59307;DHT22;47983;53.016;-2.260;2022-12-18T16:32:25;2.70;99.90
59307;DHT22;47983;53.016;-2.260;2022-12-18T16:34:59;2.70;99.90
59307;DHT22;47983;53.016;-2.260;2022-12-18T16:37:28;2.70;99.90
59307;DHT22;47983;53.016;-2.260;2022-12-18T16:39:56;2.80;99.90
59307;DHT22;47983;53.016;-2.260;2022-12-18T16:42:23;2.80;99.90
59307;DHT22;47983;53.016;-2.260;2022-12-18T16:44:53;3.40;99.90
59307;DHT22;47983;53.016;-2.260;2022-12-18T16:47:21;2.90;99.90
59307;DHT22;47983;53.016;-2.260;2022-12-18T16:49:49;2.90;99.90
59307;DHT22;47983;53.016;-2.260;2022-12-18T16:52:31;2.90;99.90
59307;DHT22;47983;53.016;-2.260;2022-12-18T16:54:59;3.20;99.90
59307;DHT22;47983;53.016;-2.260;2022-12-18T16:57:27;3.00;99.90
59307;DHT22;47983;53.016;-2.260;2022-12-18T16:59:56;3.10;99.90
59307;DHT22;47983;53.016;-2.260;2022-12-18T17:02:32;3.10;99.90
59307;DHT22;47983;53.016;-2.260;2022-12-18T17:05:00;3.10;99.90
59307;DHT22;47983;53.016;-2.260;2022-12-18T17:07:31;3.10;99.90
59307;DHT22;47983;53.016;-2.260;2022-12-18T17:09:58;3.20;99.90
59307;DHT22;47983;53.016;-2.260;2022-12-18T17:12:26;3.10;99.90
59307;DHT22;47983;53.016;-2.260;2022-12-18T17:14:54;3.20;99.90
59307;DHT22;47983;53.016;-2.260;2022-12-18T17:17:22;3.20;99.90
59307;DHT22;47983;53.016;-2.260;2022-12-18T17:19:51;3.20;99.90
59307;DHT22;47983;53.016;-2.260;2022-12-18T17:22:20;3.20;99.90
59307;DHT22;47983;53.016;-2.260;2022-12-18T17:24:47;3.20;99.90
59307;DHT22;47983;53.016;-2.260;2022-12-18T17:27:15;3.30;99.90
59307;DHT22;47983;53.016;-2.260;2022-12-18T17:29:44;3.30;99.90
59307;DHT22;47983;53.016;-2.260;2022-12-18T17:32:16;3.30;99.90
59307;DHT22;47983;53.016;-2.260;2022-12-18T17:34:47;3.30;99.90
59307;DHT22;47983;53.016;-2.260;2022-12-18T17:37:18;3.40;99.90
59307;DHT22;47983;53.016;-2.260;2022-12-18T17:39:46;3.40;99.90
59307;DHT22;47983;53.016;-2.260;2022-12-18T17:42:14;3.40;99.90
59307;DHT22;47983;53.016;-2.260;2022-12-18T17:44:43;3.40;99.90
59307;DHT22;47983;53.016;-2.260;2022-12-18T17:47:12;3.50;99.90
59307;DHT22;47983;53.016;-2.260;2022-12-18T17:49:40;3.50;99.90
59307;DHT22;47983;53.016;-2.260;2022-12-18T17:52:08;3.50;99.90
59307;DHT22;47983;53.016;-2.260;2022-12-18T17:54:36;3.50;99.90
59307;DHT22;47983;53.016;-2.260;2022-12-18T17:57:06;3.60;99.90
59307;DHT22;47983;53.016;-2.260;2022-12-18T17:59:34;3.60;99.90
59307;DHT22;47983;53.016;-2.260;2022-12-18T18:02:01;3.60;99.90
59307;DHT22;47983;53.016;-2.260;2022-12-18T18:04:29;3.60;99.90
59307;DHT22;47983;53.016;-2.260;2022-12-18T18:06:57;3.60;99.90
59307;DHT22;47983;53.016;-2.260;2022-12-18T18:09:25;3.70;99.90
59307;DHT22;47983;53.016;-2.260;2022-12-18T18:11:53;4.60;99.90